KDLS

Columbia Gorge Regional / The Dalles Municipal Airport

The Dalles, Oregon, USA
METAR KDLS 110153Z AUTO 00000KT 6SM BR FEW007 02/01 A3031 RMK AO2 SLP266 T00220006
Observed Flight Rules
Dec-11 @ 01:53 UTC (59 minutes ago) Visual Flight Rules
Visibility Clouds Conditions
6 miles
  • Few at 700' AGL
  • Mist
Temperatures Readings
Current 2°C / 36°F
Dewpoint 1°C / 34°F
Humidity 93%
Altimeter 30.31" Hg
Pressure 1026.6 hPa
Elevation 71
METAR KDLS 110153Z AUTO 00000KT 6SM BR FEW007 02/01 A3031 RMK AO2 SLP266 T00220006
Observed Flight Rules
Dec-11 @ 01:53 UTC
(59 minutes ago)
VFR
Clouds
  • Few at 700' AGL
Conditions
  • Mist
Temperature Dewpoint
2°C / 36°F 1°C / 34°F
Humidity Altimeter Pressure
93% 30.31" Hg 1026.6 hPa